sensor_id;sensor_type;location;lat;lon;timestamp;temperature;humidity
55721;DHT22;41626;53.098;6.168;2022-09-24T00:01:11;13.40;99.90
55721;DHT22;41626;53.098;6.168;2022-09-24T00:03:38;13.70;99.90
55721;DHT22;41626;53.098;6.168;2022-09-24T00:06:05;13.80;99.90
55721;DHT22;41626;53.098;6.168;2022-09-24T00:08:31;13.80;99.90
55721;DHT22;41626;53.098;6.168;2022-09-24T00:11:03;13.60;99.90
55721;DHT22;41626;53.098;6.168;2022-09-24T00:13:30;13.80;99.90
55721;DHT22;41626;53.098;6.168;2022-09-24T00:15:56;13.60;99.90
55721;DHT22;41626;53.098;6.168;2022-09-24T00:18:26;13.40;99.90
55721;DHT22;41626;53.098;6.168;2022-09-24T00:20:52;13.40;99.90
55721;DHT22;41626;53.098;6.168;2022-09-24T00:23:18;13.80;99.90
55721;DHT22;41626;53.098;6.168;2022-09-24T00:25:45;13.40;99.90
55721;DHT22;41626;53.098;6.168;2022-09-24T00:28:30;13.50;99.90
55721;DHT22;41626;53.098;6.168;2022-09-24T00:30:57;13.40;99.90
55721;DHT22;41626;53.098;6.168;2022-09-24T00:33:26;13.40;99.90
55721;DHT22;41626;53.098;6.168;2022-09-24T00:36:02;13.40;99.90
55721;DHT22;41626;53.098;6.168;2022-09-24T00:38:30;13.60;99.90
55721;DHT22;41626;53.098;6.168;2022-09-24T00:40:56;13.90;99.90
55721;DHT22;41626;53.098;6.168;2022-09-24T00:48:41;13.90;99.90
55721;DHT22;41626;53.098;6.168;2022-09-24T00:51:09;13.80;99.90
55721;DHT22;41626;53.098;6.168;2022-09-24T00:53:39;13.40;99.90
55721;DHT22;41626;53.098;6.168;2022-09-24T00:56:06;13.90;99.90
55721;DHT22;41626;53.098;6.168;2022-09-24T00:58:33;13.60;99.90
55721;DHT22;41626;53.098;6.168;2022-09-24T01:01:06;13.40;99.90
55721;DHT22;41626;53.098;6.168;2022-09-24T01:03:35;13.90;99.90
55721;DHT22;41626;53.098;6.168;2022-09-24T01:06:06;13.90;99.90
55721;DHT22;41626;53.098;6.168;2022-09-24T01:08:32;13.80;99.90
55721;DHT22;41626;53.098;6.168;2022-09-24T01:16:56;13.40;99.90
55721;DHT22;41626;53.098;6.168;2022-09-24T01:26:11;13.40;99.90
55721;DHT22;41626;53.098;6.168;2022-09-24T01:30:56;13.90;99.90
55721;DHT22;41626;53.098;6.168;2022-09-24T01:33:26;13.70;99.90
55721;DHT22;41626;53.098;6.168;2022-09-24T01:35:55;13.40;99.90
55721;DHT22;41626;53.098;6.168;2022-09-24T01:38:27;13.60;99.90
55721;DHT22;41626;53.098;6.168;2022-09-24T01:40:56;13.50;99.90
55721;DHT22;41626;53.098;6.168;2022-09-24T01:43:25;13.90;99.90
55721;DHT22;41626;53.098;6.168;2022-09-24T01:45:51;13.50;99.90
55721;DHT22;41626;53.098;6.168;2022-09-24T01:51:12;13.90;99.90
55721;DHT22;41626;53.098;6.168;2022-09-24T01:56:27;13.60;99.90
55721;DHT22;41626;53.098;6.168;2022-09-24T01:59:05;13.80;99.90
55721;DHT22;41626;53.098;6.168;2022-09-24T02:01:47;13.90;99.90
55721;DHT22;41626;53.098;6.168;2022-09-24T02:04:17;13.90;99.90
55721;DHT22;41626;53.098;6.168;2022-09-24T02:07:06;13.60;99.90
55721;DHT22;41626;53.098;6.168;2022-09-24T02:09:42;13.60;99.90
55721;DHT22;41626;53.098;6.168;2022-09-24T02:15:09;14.00;99.90
55721;DHT22;41626;53.098;6.168;2022-09-24T02:17:37;14.00;99.90
55721;DHT22;41626;53.098;6.168;2022-09-24T02:20:10;13.90;99.90
55721;DHT22;41626;53.098;6.168;2022-09-24T02:22:37;13.70;99.90
55721;DHT22;41626;53.098;6.168;2022-09-24T02:25:05;14.10;99.90
55721;DHT22;41626;53.098;6.168;2022-09-24T02:27:34;13.70;99.90
55721;DHT22;41626;53.098;6.168;2022-09-24T02:29:59;13.80;99.90
55721;DHT22;41626;53.098;6.168;2022-09-24T02:32:28;13.80;99.90
55721;DHT22;41626;53.098;6.168;2022-09-24T02:35:02;13.90;99.90
55721;DHT22;41626;53.098;6.168;2022-09-24T02:37:32;13.50;99.90
55721;DHT22;41626;53.098;6.168;2022-09-24T02:39:58;14.10;99.90
55721;DHT22;41626;53.098;6.168;2022-09-24T02:42:23;13.70;99.90
55721;DHT22;41626;53.098;6.168;2022-09-24T02:44:49;13.50;99.90
55721;DHT22;41626;53.098;6.168;2022-09-24T02:47:16;14.00;99.90
55721;DHT22;41626;53.098;6.168;2022-09-24T02:49:43;13.60;99.90
55721;DHT22;41626;53.098;6.168;2022-09-24T02:52:09;13.70;99.90
55721;DHT22;41626;53.098;6.168;2022-09-24T02:54:34;13.70;99.90
55721;DHT22;41626;53.098;6.168;2022-09-24T02:57:00;14.00;99.90
55721;DHT22;41626;53.098;6.168;2022-09-24T02:59:26;13.60;99.90
55721;DHT22;41626;53.098;6.168;2022-09-24T03:01:51;13.40;99.90
55721;DHT22;41626;53.098;6.168;2022-09-24T03:04:17;14.10;99.90
55721;DHT22;41626;53.098;6.168;2022-09-24T03:06:43;13.50;99.90
55721;DHT22;41626;53.098;6.168;2022-09-24T03:09:11;14.00;99.90
55721;DHT22;41626;53.098;6.168;2022-09-24T03:11:37;14.10;99.90
55721;DHT22;41626;53.098;6.168;2022-09-24T03:14:03;14.00;99.90
55721;DHT22;41626;53.098;6.168;2022-09-24T03:16:28;13.50;99.90
55721;DHT22;41626;53.098;6.168;2022-09-24T03:18:54;13.50;99.90
55721;DHT22;41626;53.098;6.168;2022-09-24T03:21:20;13.90;99.90
55721;DHT22;41626;53.098;6.168;2022-09-24T03:23:47;14.00;99.90
55721;DHT22;41626;53.098;6.168;2022-09-24T03:26:12;13.80;99.90
55721;DHT22;41626;53.098;6.168;2022-09-24T03:28:38;13.60;99.90
55721;DHT22;41626;53.098;6.168;2022-09-24T03:31:05;14.10;99.90
55721;DHT22;41626;53.098;6.168;2022-09-24T03:33:40;13.80;99.90
55721;DHT22;41626;53.098;6.168;2022-09-24T03:36:14;14.10;99.90
55721;DHT22;41626;53.098;6.168;2022-09-24T03:38:41;13.70;99.90
55721;DHT22;41626;53.098;6.168;2022-09-24T03:41:08;13.50;99.90
55721;DHT22;41626;53.098;6.168;2022-09-24T03:43:34;13.60;99.90
55721;DHT22;41626;53.098;6.168;2022-09-24T03:46:00;14.00;99.90
55721;DHT22;41626;53.098;6.168;2022-09-24T03:48:27;13.90;99.90
55721;DHT22;41626;53.098;6.168;2022-09-24T03:50:54;14.00;99.90
55721;DHT22;41626;53.098;6.168;2022-09-24T03:53:20;14.20;99.90
55721;DHT22;41626;53.098;6.168;2022-09-24T03:55:52;13.60;99.90
55721;DHT22;41626;53.098;6.168;2022-09-24T03:58:18;14.20;99.90
55721;DHT22;41626;53.098;6.168;2022-09-24T04:00:43;14.10;99.90
55721;DHT22;41626;53.098;6.168;2022-09-24T04:03:09;13.90;99.90
55721;DHT22;41626;53.098;6.168;2022-09-24T04:05:35;14.00;99.90
55721;DHT22;41626;53.098;6.168;2022-09-24T04:08:02;13.90;99.90
55721;DHT22;41626;53.098;6.168;2022-09-24T04:10:29;14.00;99.90
55721;DHT22;41626;53.098;6.168;2022-09-24T04:12:55;14.20;99.90
55721;DHT22;41626;53.098;6.168;2022-09-24T04:15:22;13.60;99.90
55721;DHT22;41626;53.098;6.168;2022-09-24T04:17:57;13.70;99.90
55721;DHT22;41626;53.098;6.168;2022-09-24T04:20:25;13.70;99.90
55721;DHT22;41626;53.098;6.168;2022-09-24T04:22:53;14.20;99.90
55721;DHT22;41626;53.098;6.168;2022-09-24T04:25:21;13.60;99.90
55721;DHT22;41626;53.098;6.168;2022-09-24T04:27:52;14.20;99.90
55721;DHT22;41626;53.098;6.168;2022-09-24T04:30:18;13.90;99.90
55721;DHT22;41626;53.098;6.168;2022-09-24T04:32:43;13.60;99.90
55721;DHT22;41626;53.098;6.168;2022-09-24T04:35:09;13.90;99.90
55721;DHT22;41626;53.098;6.168;2022-09-24T04:37:35;14.20;99.90
55721;DHT22;41626;53.098;6.168;2022-09-24T04:40:03;13.60;99.90
55721;DHT22;41626;53.098;6.168;2022-09-24T04:42:29;14.10;99.90
55721;DHT22;41626;53.098;6.168;2022-09-24T04:44:55;14.10;99.90
55721;DHT22;41626;53.098;6.168;2022-09-24T04:47:21;14.10;99.90
55721;DHT22;41626;53.098;6.168;2022-09-24T04:49:50;13.60;99.90
55721;DHT22;41626;53.098;6.168;2022-09-24T04:52:16;13.70;99.90
55721;DHT22;41626;53.098;6.168;2022-09-24T04:54:43;13.60;99.90
55721;DHT22;41626;53.098;6.168;2022-09-24T04:57:14;14.10;99.90
55721;DHT22;41626;53.098;6.168;2022-09-24T04:59:41;14.10;99.90
55721;DHT22;41626;53.098;6.168;2022-09-24T05:02:07;13.70;99.90
55721;DHT22;41626;53.098;6.168;2022-09-24T05:04:34;13.60;99.90
55721;DHT22;41626;53.098;6.168;2022-09-24T05:07:00;13.50;99.90
55721;DHT22;41626;53.098;6.168;2022-09-24T05:09:25;13.60;99.90
55721;DHT22;41626;53.098;6.168;2022-09-24T05:11:51;13.70;99.90
55721;DHT22;41626;53.098;6.168;2022-09-24T05:14:17;14.00;99.90
55721;DHT22;41626;53.098;6.168;2022-09-24T05:16:42;13.40;99.90
55721;DHT22;41626;53.098;6.168;2022-09-24T05:19:08;13.90;99.90
55721;DHT22;41626;53.098;6.168;2022-09-24T05:21:34;13.90;99.90
55721;DHT22;41626;53.098;6.168;2022-09-24T05:24:00;13.90;99.90
55721;DHT22;41626;53.098;6.168;2022-09-24T05:26:25;13.40;99.90
55721;DHT22;41626;53.098;6.168;2022-09-24T05:29:10;13.80;99.90
55721;DHT22;41626;53.098;6.168;2022-09-24T05:31:35;13.60;99.90
55721;DHT22;41626;53.098;6.168;2022-09-24T05:34:01;13.50;99.90
55721;DHT22;41626;53.098;6.168;2022-09-24T05:36:28;13.40;99.90
55721;DHT22;41626;53.098;6.168;2022-09-24T05:38:53;13.40;99.90
55721;DHT22;41626;53.098;6.168;2022-09-24T05:41:19;13.30;99.90
55721;DHT22;41626;53.098;6.168;2022-09-24T05:43:45;13.70;99.90
55721;DHT22;41626;53.098;6.168;2022-09-24T05:46:11;13.30;99.90
55721;DHT22;41626;53.098;6.168;2022-09-24T05:48:36;13.40;99.90
55721;DHT22;41626;53.098;6.168;2022-09-24T05:51:03;13.50;99.90
55721;DHT22;41626;53.098;6.168;2022-09-24T05:53:30;13.20;99.90
55721;DHT22;41626;53.098;6.168;2022-09-24T05:55:55;13.50;99.90
55721;DHT22;41626;53.098;6.168;2022-09-24T05:58:22;13.20;99.90
55721;DHT22;41626;53.098;6.168;2022-09-24T06:00:49;13.30;99.90
55721;DHT22;41626;53.098;6.168;2022-09-24T06:03:16;13.70;99.90
55721;DHT22;41626;53.098;6.168;2022-09-24T06:05:43;13.20;99.90
55721;DHT22;41626;53.098;6.168;2022-09-24T06:08:11;13.60;99.90
55721;DHT22;41626;53.098;6.168;2022-09-24T06:10:37;13.60;99.90
55721;DHT22;41626;53.098;6.168;2022-09-24T06:13:03;13.30;99.90
55721;DHT22;41626;53.098;6.168;2022-09-24T06:15:30;13.80;99.90
55721;DHT22;41626;53.098;6.168;2022-09-24T06:17:56;13.30;99.90
55721;DHT22;41626;53.098;6.168;2022-09-24T06:20:22;13.70;99.90
55721;DHT22;41626;53.098;6.168;2022-09-24T06:22:48;13.40;99.90
55721;DHT22;41626;53.098;6.168;2022-09-24T06:25:15;13.70;99.90
55721;DHT22;41626;53.098;6.168;2022-09-24T06:27:40;13.70;99.90
55721;DHT22;41626;53.098;6.168;2022-09-24T06:30:06;13.80;99.90
55721;DHT22;41626;53.098;6.168;2022-09-24T06:32:32;13.30;99.90
55721;DHT22;41626;53.098;6.168;2022-09-24T06:34:58;13.30;99.90
55721;DHT22;41626;53.098;6.168;2022-09-24T06:37:24;13.60;99.90
55721;DHT22;41626;53.098;6.168;2022-09-24T06:39:49;13.30;99.90
55721;DHT22;41626;53.098;6.168;2022-09-24T06:42:15;13.40;99.90
55721;DHT22;41626;53.098;6.168;2022-09-24T06:44:41;13.40;99.90
55721;DHT22;41626;53.098;6.168;2022-09-24T06:47:06;13.40;99.90
55721;DHT22;41626;53.098;6.168;2022-09-24T06:49:32;13.80;99.90
55721;DHT22;41626;53.098;6.168;2022-09-24T06:51:58;13.50;99.90
55721;DHT22;41626;53.098;6.168;2022-09-24T06:54:24;13.90;99.90
55721;DHT22;41626;53.098;6.168;2022-09-24T06:56:50;13.60;99.90
55721;DHT22;41626;53.098;6.168;2022-09-24T06:59:17;14.00;99.90
55721;DHT22;41626;53.098;6.168;2022-09-24T07:01:43;13.90;99.90
55721;DHT22;41626;53.098;6.168;2022-09-24T07:04:09;13.90;99.90
55721;DHT22;41626;53.098;6.168;2022-09-24T07:06:35;13.50;99.90
55721;DHT22;41626;53.098;6.168;2022-09-24T07:09:20;13.70;99.90
55721;DHT22;41626;53.098;6.168;2022-09-24T07:11:46;14.00;99.90
55721;DHT22;41626;53.098;6.168;2022-09-24T07:14:12;14.00;99.90
55721;DHT22;41626;53.098;6.168;2022-09-24T07:16:38;13.80;99.90
55721;DHT22;41626;53.098;6.168;2022-09-24T07:19:04;13.60;99.90
55721;DHT22;41626;53.098;6.168;2022-09-24T07:21:30;13.90;99.90
55721;DHT22;41626;53.098;6.168;2022-09-24T07:23:55;13.60;99.90
55721;DHT22;41626;53.098;6.168;2022-09-24T07:26:21;14.10;99.90
55721;DHT22;41626;53.098;6.168;2022-09-24T07:28:47;14.10;99.90
55721;DHT22;41626;53.098;6.168;2022-09-24T07:31:13;13.90;99.90
55721;DHT22;41626;53.098;6.168;2022-09-24T07:33:38;13.80;99.90
55721;DHT22;41626;53.098;6.168;2022-09-24T07:36:05;13.80;99.90
55721;DHT22;41626;53.098;6.168;2022-09-24T07:38:31;13.70;99.90
55721;DHT22;41626;53.098;6.168;2022-09-24T07:40:57;13.80;99.90
55721;DHT22;41626;53.098;6.168;2022-09-24T07:43:23;13.90;99.90
55721;DHT22;41626;53.098;6.168;2022-09-24T07:45:49;14.10;99.90
55721;DHT22;41626;53.098;6.168;2022-09-24T07:48:17;14.00;99.90
55721;DHT22;41626;53.098;6.168;2022-09-24T07:50:43;14.30;99.90
55721;DHT22;41626;53.098;6.168;2022-09-24T07:53:12;14.20;99.90
55721;DHT22;41626;53.098;6.168;2022-09-24T07:55:38;14.20;99.90
55721;DHT22;41626;53.098;6.168;2022-09-24T07:58:06;14.00;99.90
55721;DHT22;41626;53.098;6.168;2022-09-24T08:00:33;14.00;99.90
55721;DHT22;41626;53.098;6.168;2022-09-24T08:03:01;14.10;99.90
55721;DHT22;41626;53.098;6.168;2022-09-24T08:05:27;14.10;99.90
55721;DHT22;41626;53.098;6.168;2022-09-24T08:07:57;14.50;99.90
55721;DHT22;41626;53.098;6.168;2022-09-24T08:10:24;14.30;99.90
55721;DHT22;41626;53.098;6.168;2022-09-24T08:12:51;14.20;99.90
55721;DHT22;41626;53.098;6.168;2022-09-24T08:15:17;14.20;99.90
55721;DHT22;41626;53.098;6.168;2022-09-24T08:17:43;14.30;99.90
55721;DHT22;41626;53.098;6.168;2022-09-24T08:20:09;14.30;99.90
55721;DHT22;41626;53.098;6.168;2022-09-24T08:22:36;14.20;99.90
55721;DHT22;41626;53.098;6.168;2022-09-24T08:25:02;14.10;99.90
55721;DHT22;41626;53.098;6.168;2022-09-24T08:27:29;14.30;99.90
55721;DHT22;41626;53.098;6.168;2022-09-24T08:29:54;14.10;99.90
55721;DHT22;41626;53.098;6.168;2022-09-24T08:32:22;14.30;99.90
55721;DHT22;41626;53.098;6.168;2022-09-24T08:34:47;14.10;99.90
55721;DHT22;41626;53.098;6.168;2022-09-24T08:37:13;14.10;99.90
55721;DHT22;41626;53.098;6.168;2022-09-24T08:39:39;14.30;99.90
55721;DHT22;41626;53.098;6.168;2022-09-24T08:42:06;14.40;99.90
55721;DHT22;41626;53.098;6.168;2022-09-24T08:44:39;14.60;99.90
55721;DHT22;41626;53.098;6.168;2022-09-24T08:47:53;14.60;99.90
55721;DHT22;41626;53.098;6.168;2022-09-24T08:50:26;14.60;99.90
55721;DHT22;41626;53.098;6.168;2022-09-24T08:55:35;14.60;99.90
55721;DHT22;41626;53.098;6.168;2022-09-24T09:03:39;14.60;99.90
55721;DHT22;41626;53.098;6.168;2022-09-24T09:11:23;14.30;99.90
55721;DHT22;41626;53.098;6.168;2022-09-24T09:14:43;14.50;99.90
55721;DHT22;41626;53.098;6.168;2022-09-24T09:19:43;14.40;99.90
55721;DHT22;41626;53.098;6.168;2022-09-24T09:22:15;14.60;99.90
55721;DHT22;41626;53.098;6.168;2022-09-24T09:24:50;14.30;99.90
55721;DHT22;41626;53.098;6.168;2022-09-24T09:27:17;14.40;99.90
55721;DHT22;41626;53.098;6.168;2022-09-24T09:29:50;14.50;99.90
55721;DHT22;41626;53.098;6.168;2022-09-24T09:35:41;14.60;99.90
55721;DHT22;41626;53.098;6.168;2022-09-24T09:38:19;14.60;99.90
55721;DHT22;41626;53.098;6.168;2022-09-24T09:40:56;14.50;99.90
55721;DHT22;41626;53.098;6.168;2022-09-24T09:43:25;14.70;99.90
55721;DHT22;41626;53.098;6.168;2022-09-24T09:46:12;14.50;99.90
55721;DHT22;41626;53.098;6.168;2022-09-24T09:48:59;14.70;99.90
55721;DHT22;41626;53.098;6.168;2022-09-24T09:51:32;14.50;99.90
55721;DHT22;41626;53.098;6.168;2022-09-24T09:54:02;14.60;99.90
55721;DHT22;41626;53.098;6.168;2022-09-24T09:56:32;14.50;99.90
55721;DHT22;41626;53.098;6.168;2022-09-24T10:01:41;14.80;99.90
55721;DHT22;41626;53.098;6.168;2022-09-24T10:07:14;14.80;99.90
55721;DHT22;41626;53.098;6.168;2022-09-24T10:09:42;14.80;99.90
55721;DHT22;41626;53.098;6.168;2022-09-24T10:14:56;14.90;99.90
55721;DHT22;41626;53.098;6.168;2022-09-24T10:17:38;14.90;99.90
55721;DHT22;41626;53.098;6.168;2022-09-24T10:20:28;14.90;99.90
55721;DHT22;41626;53.098;6.168;2022-09-24T10:23:01;15.30;99.90
55721;DHT22;41626;53.098;6.168;2022-09-24T10:25:29;15.10;99.90
55721;DHT22;41626;53.098;6.168;2022-09-24T10:28:00;15.20;99.90
55721;DHT22;41626;53.098;6.168;2022-09-24T10:33:38;14.90;99.90
55721;DHT22;41626;53.098;6.168;2022-09-24T10:36:26;15.00;99.90
55721;DHT22;41626;53.098;6.168;2022-09-24T10:39:13;15.10;99.90
55721;DHT22;41626;53.098;6.168;2022-09-24T10:41:46;14.80;99.90
55721;DHT22;41626;53.098;6.168;2022-09-24T10:44:13;15.00;99.90
55721;DHT22;41626;53.098;6.168;2022-09-24T10:49:32;14.80;99.90
55721;DHT22;41626;53.098;6.168;2022-09-24T10:57:56;14.40;99.90
55721;DHT22;41626;53.098;6.168;2022-09-24T11:00:39;14.40;99.90
55721;DHT22;41626;53.098;6.168;2022-09-24T11:08:39;14.30;99.90
55721;DHT22;41626;53.098;6.168;2022-09-24T11:11:37;14.80;99.90
55721;DHT22;41626;53.098;6.168;2022-09-24T11:17:22;14.50;99.90
55721;DHT22;41626;53.098;6.168;2022-09-24T11:41:30;14.10;99.90
55721;DHT22;41626;53.098;6.168;2022-09-24T11:44:16;13.80;99.90
55721;DHT22;41626;53.098;6.168;2022-09-24T11:47:08;13.90;99.90
55721;DHT22;41626;53.098;6.168;2022-09-24T11:52:47;13.80;99.90
55721;DHT22;41626;53.098;6.168;2022-09-24T11:55:21;14.20;99.90
55721;DHT22;41626;53.098;6.168;2022-09-24T12:01:20;14.00;99.90
55721;DHT22;41626;53.098;6.168;2022-09-24T12:04:17;14.10;99.90
55721;DHT22;41626;53.098;6.168;2022-09-24T12:09:32;14.30;99.90
55721;DHT22;41626;53.098;6.168;2022-09-24T12:12:22;14.30;99.90
55721;DHT22;41626;53.098;6.168;2022-09-24T12:20:00;14.50;99.90
55721;DHT22;41626;53.098;6.168;2022-09-24T12:22:28;14.60;99.90
55721;DHT22;41626;53.098;6.168;2022-09-24T12:24:58;14.40;99.90
55721;DHT22;41626;53.098;6.168;2022-09-24T12:27:33;14.60;99.90
55721;DHT22;41626;53.098;6.168;2022-09-24T12:30:27;14.70;99.90
55721;DHT22;41626;53.098;6.168;2022-09-24T12:35:59;14.50;99.90
55721;DHT22;41626;53.098;6.168;2022-09-24T12:38:39;14.70;99.90
55721;DHT22;41626;53.098;6.168;2022-09-24T12:46:32;14.70;99.90
55721;DHT22;41626;53.098;6.168;2022-09-24T12:48:59;14.50;99.90
55721;DHT22;41626;53.098;6.168;2022-09-24T12:51:34;14.60;99.90
55721;DHT22;41626;53.098;6.168;2022-09-24T12:54:16;14.40;99.90
55721;DHT22;41626;53.098;6.168;2022-09-24T12:56:46;14.50;99.90
55721;DHT22;41626;53.098;6.168;2022-09-24T12:59:26;14.60;99.90
55721;DHT22;41626;53.098;6.168;2022-09-24T13:01:53;14.30;99.90
55721;DHT22;41626;53.098;6.168;2022-09-24T13:06:45;14.40;99.90
55721;DHT22;41626;53.098;6.168;2022-09-24T13:09:35;14.10;99.90
55721;DHT22;41626;53.098;6.168;2022-09-24T13:14:41;14.10;99.90
55721;DHT22;41626;53.098;6.168;2022-09-24T13:17:11;14.20;99.90
55721;DHT22;41626;53.098;6.168;2022-09-24T13:19:41;14.00;99.90
55721;DHT22;41626;53.098;6.168;2022-09-24T13:22:21;14.40;99.90
55721;DHT22;41626;53.098;6.168;2022-09-24T13:24:53;14.50;99.90
55721;DHT22;41626;53.098;6.168;2022-09-24T13:30:20;14.40;99.90
55721;DHT22;41626;53.098;6.168;2022-09-24T13:32:55;14.70;99.90
55721;DHT22;41626;53.098;6.168;2022-09-24T13:35:26;14.50;99.90
55721;DHT22;41626;53.098;6.168;2022-09-24T13:40:57;14.80;99.90
55721;DHT22;41626;53.098;6.168;2022-09-24T13:46:25;14.90;99.90
55721;DHT22;41626;53.098;6.168;2022-09-24T13:48:55;14.90;99.90
55721;DHT22;41626;53.098;6.168;2022-09-24T13:51:28;14.90;99.90
55721;DHT22;41626;53.098;6.168;2022-09-24T13:54:24;15.20;99.90
55721;DHT22;41626;53.098;6.168;2022-09-24T13:57:27;15.10;99.90
55721;DHT22;41626;53.098;6.168;2022-09-24T14:00:18;15.40;99.90
55721;DHT22;41626;53.098;6.168;2022-09-24T14:03:20;15.40;99.90
55721;DHT22;41626;53.098;6.168;2022-09-24T14:05:46;15.40;99.90
55721;DHT22;41626;53.098;6.168;2022-09-24T14:08:16;15.00;99.90
55721;DHT22;41626;53.098;6.168;2022-09-24T14:10:43;15.20;99.90
55721;DHT22;41626;53.098;6.168;2022-09-24T14:16:16;15.00;99.90
55721;DHT22;41626;53.098;6.168;2022-09-24T14:18:44;15.20;99.90
55721;DHT22;41626;53.098;6.168;2022-09-24T14:24:02;15.10;99.90
55721;DHT22;41626;53.098;6.168;2022-09-24T14:26:48;15.00;99.90
55721;DHT22;41626;53.098;6.168;2022-09-24T14:29:21;15.10;99.90
55721;DHT22;41626;53.098;6.168;2022-09-24T14:31:51;15.10;99.90
55721;DHT22;41626;53.098;6.168;2022-09-24T14:34:29;15.00;99.90
55721;DHT22;41626;53.098;6.168;2022-09-24T14:37:11;15.00;99.90
55721;DHT22;41626;53.098;6.168;2022-09-24T14:39:42;14.80;99.90
55721;DHT22;41626;53.098;6.168;2022-09-24T14:42:55;15.00;99.90
55721;DHT22;41626;53.098;6.168;2022-09-24T14:45:02;14.80;99.90
55721;DHT22;41626;53.098;6.168;2022-09-24T14:47:33;15.10;99.90
55721;DHT22;41626;53.098;6.168;2022-09-24T14:49:59;15.20;99.90
55721;DHT22;41626;53.098;6.168;2022-09-24T14:55:17;15.10;99.90
55721;DHT22;41626;53.098;6.168;2022-09-24T14:57:44;15.10;99.90
55721;DHT22;41626;53.098;6.168;2022-09-24T15:00:25;15.40;99.90
55721;DHT22;41626;53.098;6.168;2022-09-24T15:05:25;15.00;99.90
55721;DHT22;41626;53.098;6.168;2022-09-24T15:08:14;15.00;99.90
55721;DHT22;41626;53.098;6.168;2022-09-24T15:10:54;15.10;99.90
55721;DHT22;41626;53.098;6.168;2022-09-24T15:13:25;15.30;99.90
55721;DHT22;41626;53.098;6.168;2022-09-24T15:19:14;15.10;99.90
55721;DHT22;41626;53.098;6.168;2022-09-24T15:21:42;15.10;99.90
55721;DHT22;41626;53.098;6.168;2022-09-24T15:24:08;15.10;99.90
55721;DHT22;41626;53.098;6.168;2022-09-24T15:26:38;15.00;99.90
55721;DHT22;41626;53.098;6.168;2022-09-24T15:29:05;15.10;99.90
55721;DHT22;41626;53.098;6.168;2022-09-24T15:31:31;15.10;99.90
55721;DHT22;41626;53.098;6.168;2022-09-24T15:33:57;15.10;99.90
55721;DHT22;41626;53.098;6.168;2022-09-24T15:36:23;15.00;99.90
55721;DHT22;41626;53.098;6.168;2022-09-24T15:38:50;15.00;99.90
55721;DHT22;41626;53.098;6.168;2022-09-24T15:41:17;15.00;99.90
55721;DHT22;41626;53.098;6.168;2022-09-24T15:43:46;15.00;99.90
55721;DHT22;41626;53.098;6.168;2022-09-24T15:46:12;15.20;99.90
55721;DHT22;41626;53.098;6.168;2022-09-24T15:48:38;15.20;99.90
55721;DHT22;41626;53.098;6.168;2022-09-24T15:51:04;15.20;99.90
55721;DHT22;41626;53.098;6.168;2022-09-24T15:53:30;15.30;99.90
55721;DHT22;41626;53.098;6.168;2022-09-24T15:56:02;15.40;99.90
55721;DHT22;41626;53.098;6.168;2022-09-24T15:58:28;15.40;99.90
55721;DHT22;41626;53.098;6.168;2022-09-24T16:00:54;15.40;99.90
55721;DHT22;41626;53.098;6.168;2022-09-24T16:03:23;15.20;99.90
55721;DHT22;41626;53.098;6.168;2022-09-24T16:05:49;15.30;99.90
55721;DHT22;41626;53.098;6.168;2022-09-24T16:08:15;15.20;99.90
55721;DHT22;41626;53.098;6.168;2022-09-24T16:10:41;15.20;99.90
55721;DHT22;41626;53.098;6.168;2022-09-24T16:13:08;15.10;99.90
55721;DHT22;41626;53.098;6.168;2022-09-24T16:15:34;15.10;99.90
55721;DHT22;41626;53.098;6.168;2022-09-24T16:18:00;14.90;99.90
55721;DHT22;41626;53.098;6.168;2022-09-24T16:20:26;14.90;99.90
55721;DHT22;41626;53.098;6.168;2022-09-24T16:22:52;14.90;99.90
55721;DHT22;41626;53.098;6.168;2022-09-24T16:25:17;14.90;99.90
55721;DHT22;41626;53.098;6.168;2022-09-24T16:27:43;14.80;99.90
55721;DHT22;41626;53.098;6.168;2022-09-24T16:30:10;14.70;99.90
55721;DHT22;41626;53.098;6.168;2022-09-24T16:32:35;14.70;99.90
55721;DHT22;41626;53.098;6.168;2022-09-24T16:35:01;14.70;99.90
55721;DHT22;41626;53.098;6.168;2022-09-24T16:37:27;14.60;99.90
55721;DHT22;41626;53.098;6.168;2022-09-24T16:39:53;14.60;99.90
55721;DHT22;41626;53.098;6.168;2022-09-24T16:42:19;14.50;99.90
55721;DHT22;41626;53.098;6.168;2022-09-24T16:44:45;14.50;99.90
55721;DHT22;41626;53.098;6.168;2022-09-24T16:47:11;14.40;99.90
55721;DHT22;41626;53.098;6.168;2022-09-24T16:49:41;14.40;99.90
55721;DHT22;41626;53.098;6.168;2022-09-24T16:52:07;14.30;99.90
55721;DHT22;41626;53.098;6.168;2022-09-24T16:54:32;14.30;99.90
55721;DHT22;41626;53.098;6.168;2022-09-24T16:56:58;14.30;99.90
55721;DHT22;41626;53.098;6.168;2022-09-24T16:59:26;14.20;99.90
55721;DHT22;41626;53.098;6.168;2022-09-24T17:01:52;14.20;99.90
55721;DHT22;41626;53.098;6.168;2022-09-24T17:04:18;14.10;99.90
55721;DHT22;41626;53.098;6.168;2022-09-24T17:06:44;14.00;99.90
55721;DHT22;41626;53.098;6.168;2022-09-24T17:09:11;13.90;99.90
55721;DHT22;41626;53.098;6.168;2022-09-24T17:11:55;13.80;99.90
55721;DHT22;41626;53.098;6.168;2022-09-24T17:14:22;13.90;99.90
55721;DHT22;41626;53.098;6.168;2022-09-24T17:16:48;13.70;99.90
55721;DHT22;41626;53.098;6.168;2022-09-24T17:19:14;13.70;99.90
55721;DHT22;41626;53.098;6.168;2022-09-24T17:21:41;13.60;99.90
55721;DHT22;41626;53.098;6.168;2022-09-24T17:24:08;13.60;99.90
55721;DHT22;41626;53.098;6.168;2022-09-24T17:26:34;13.50;99.90
55721;DHT22;41626;53.098;6.168;2022-09-24T17:29:00;13.50;99.90
55721;DHT22;41626;53.098;6.168;2022-09-24T17:31:26;13.50;99.90
55721;DHT22;41626;53.098;6.168;2022-09-24T17:34:00;13.50;99.90
55721;DHT22;41626;53.098;6.168;2022-09-24T17:36:28;13.40;99.90
55721;DHT22;41626;53.098;6.168;2022-09-24T17:38:54;13.40;99.90
55721;DHT22;41626;53.098;6.168;2022-09-24T17:41:22;13.30;99.90
55721;DHT22;41626;53.098;6.168;2022-09-24T17:43:48;13.30;99.90
55721;DHT22;41626;53.098;6.168;2022-09-24T17:46:16;13.10;99.90
55721;DHT22;41626;53.098;6.168;2022-09-24T17:48:46;13.10;99.90
55721;DHT22;41626;53.098;6.168;2022-09-24T17:51:15;13.00;99.90
55721;DHT22;41626;53.098;6.168;2022-09-24T17:53:41;13.10;99.90
55721;DHT22;41626;53.098;6.168;2022-09-24T17:56:09;13.00;99.90
55721;DHT22;41626;53.098;6.168;2022-09-24T17:58:38;12.90;99.90
55721;DHT22;41626;53.098;6.168;2022-09-24T18:03:37;12.90;99.90
55721;DHT22;41626;53.098;6.168;2022-09-24T18:06:06;12.80;99.90
55721;DHT22;41626;53.098;6.168;2022-09-24T18:08:38;12.80;99.90
55721;DHT22;41626;53.098;6.168;2022-09-24T18:11:08;12.70;99.90
55721;DHT22;41626;53.098;6.168;2022-09-24T18:13:35;12.60;99.90
55721;DHT22;41626;53.098;6.168;2022-09-24T18:16:05;12.60;99.90
55721;DHT22;41626;53.098;6.168;2022-09-24T18:18:32;12.70;99.90